Airfield :
LOGIN :

Register | Disclaimer

   EN    FR    IT 

 










Legend :    VFR   Marginal VFR   IFR   Intensive IFR   Very Intensive IFR
Visi :
Ceiling :
>= 8 km
>= 3000ft
5 to 8 km
1000 to 3000 ft
1500m to 5 km
500 to 1000 ft
800 to 1500m
200 to 500 ft
< 800m
< 200 ft
Symbols :   Thunderstorms  Fog  Heavy snow  Heavy precipitations  Wind > 20 kt
SIGMETs :     Misc.  Thunderstorms  Icing  Turbulence  Mountain Waves  Volcanic Ashes






- Airport Elevation : 17 ft
- IATA code : CPH


EKCH - København - Kastrup (Copenhagen)

CURRENT METAR :
  • 072220Z AUTO 25010KT 9999 BKN097/// OVC100/// 06/04 Q1004 NOSIG

EXPIRED METARs :
  • 072150Z AUTO 25009KT 9999 FEW099/// 05/04 Q1004 NOSIG
  • 072120Z AUTO 26009KT 9999 NCD 05/04 Q1004 NOSIG
  • 072050Z AUTO 26009KT 9999 NCD 05/03 Q1004 NOSIG
  • 072020Z AUTO 25009KT 9999 NCD 05/03 Q1004 NOSIG
  • 071950Z AUTO 26010KT 9999 NCD 05/03 Q1003 NOSIG
  • 071920Z AUTO 26010KT 9999 FEW220/// 06/03 Q1003 NOSIG

TAF TAF EKCH
Valid from the 07 at 18:00 until the 08 at 18:00 UTC


071707Z 0718/0818 27008KT 9999 SCT025
BECMG 0802/0805 20018KT 4000 -RADZ BR BKN008
TEMPO 0805/0813 21020G32KT 6000 RADZ BKN015
BECMG 0813/0815 9999 NSW BKN020
TEMPO 0815/0818 SHRA SCT020CB



MET'MAP, your aeronautical weather chart ! - Copyright ORBIFLY December 2007 - Disclaimer

ORBIFLY MET'MAP TEAM :

Programming & Development : Alexandra Zaïnal
Concept & original design : Baudouin d'Aumeries
Assistance for programming : Marc-Olivier Méhu
Technical & hardware support : Manuel Goepfert

Contact : metmap@orbifly.com




SOURCES & CREDITS :

   NOAA